sensor_id;sensor_type;location;lat;lon;timestamp;P1;durP1;ratioP1;P2;durP2;ratioP2
75774;SDS011;64505;51.458;7.556;2023-04-01T00:02:01;1.90;;;0.40;;
75774;SDS011;64505;51.458;7.556;2023-04-01T00:04:02;4.03;;;0.93;;
75774;SDS011;64505;51.458;7.556;2023-04-01T00:06:04;2.42;;;0.60;;
75774;SDS011;64505;51.458;7.556;2023-04-01T00:08:06;3.38;;;0.65;;
75774;SDS011;64505;51.458;7.556;2023-04-01T00:10:08;1.92;;;1.05;;
75774;SDS011;64505;51.458;7.556;2023-04-01T00:12:12;1.75;;;0.52;;
75774;SDS011;64505;51.458;7.556;2023-04-01T00:14:14;4.70;;;0.60;;
75774;SDS011;64505;51.458;7.556;2023-04-01T00:16:15;4.78;;;0.65;;
75774;SDS011;64505;51.458;7.556;2023-04-01T00:18:23;2.38;;;0.60;;
75774;SDS011;64505;51.458;7.556;2023-04-01T00:20:25;1.88;;;0.40;;
75774;SDS011;64505;51.458;7.556;2023-04-01T00:22:26;2.42;;;0.55;;
75774;SDS011;64505;51.458;7.556;2023-04-01T00:24:28;2.47;;;0.63;;
75774;SDS011;64505;51.458;7.556;2023-04-01T00:26:29;1.00;;;0.30;;
75774;SDS011;64505;51.458;7.556;2023-04-01T00:28:31;2.90;;;0.50;;
75774;SDS011;64505;51.458;7.556;2023-04-01T00:30:36;3.42;;;0.52;;
75774;SDS011;64505;51.458;7.556;2023-04-01T00:32:38;4.82;;;0.68;;
75774;SDS011;64505;51.458;7.556;2023-04-01T00:34:39;1.45;;;0.60;;
75774;SDS011;64505;51.458;7.556;2023-04-01T00:36:41;3.47;;;0.85;;
75774;SDS011;64505;51.458;7.556;2023-04-01T00:38:43;1.70;;;0.40;;
75774;SDS011;64505;51.458;7.556;2023-04-01T00:40:45;1.80;;;0.50;;
75774;SDS011;64505;51.458;7.556;2023-04-01T00:42:47;1.42;;;0.50;;
75774;SDS011;64505;51.458;7.556;2023-04-01T00:44:52;2.05;;;0.60;;
75774;SDS011;64505;51.458;7.556;2023-04-01T00:46:55;2.40;;;0.68;;
75774;SDS011;64505;51.458;7.556;2023-04-01T00:48:57;1.98;;;0.50;;
75774;SDS011;64505;51.458;7.556;2023-04-01T00:51:09;1.75;;;0.63;;
75774;SDS011;64505;51.458;7.556;2023-04-01T00:53:16;4.32;;;0.70;;
75774;SDS011;64505;51.458;7.556;2023-04-01T00:55:19;0.90;;;0.50;;
75774;SDS011;64505;51.458;7.556;2023-04-01T00:57:24;0.98;;;0.43;;
75774;SDS011;64505;51.458;7.556;2023-04-01T00:59:30;1.85;;;0.70;;
75774;SDS011;64505;51.458;7.556;2023-04-01T01:01:35;3.13;;;0.47;;
75774;SDS011;64505;51.458;7.556;2023-04-01T01:03:37;0.73;;;0.47;;
75774;SDS011;64505;51.458;7.556;2023-04-01T01:05:46;1.88;;;0.40;;
75774;SDS011;64505;51.458;7.556;2023-04-01T01:08:09;3.58;;;0.65;;
75774;SDS011;64505;51.458;7.556;2023-04-01T01:10:29;3.78;;;0.50;;
75774;SDS011;64505;51.458;7.556;2023-04-01T01:12:48;2.15;;;0.60;;
75774;SDS011;64505;51.458;7.556;2023-04-01T01:17:31;1.80;;;0.35;;
75774;SDS011;64505;51.458;7.556;2023-04-01T01:19:50;1.38;;;0.40;;
75774;SDS011;64505;51.458;7.556;2023-04-01T01:24:43;1.50;;;0.38;;
75774;SDS011;64505;51.458;7.556;2023-04-01T01:27:17;1.70;;;0.38;;
75774;SDS011;64505;51.458;7.556;2023-04-01T01:34:22;1.88;;;0.45;;
75774;SDS011;64505;51.458;7.556;2023-04-01T01:36:29;0.77;;;0.47;;
75774;SDS011;64505;51.458;7.556;2023-04-01T01:38:35;3.28;;;0.50;;
75774;SDS011;64505;51.458;7.556;2023-04-01T01:40:39;1.10;;;0.40;;
75774;SDS011;64505;51.458;7.556;2023-04-01T01:42:45;1.08;;;0.40;;
75774;SDS011;64505;51.458;7.556;2023-04-01T01:44:50;1.38;;;0.45;;
75774;SDS011;64505;51.458;7.556;2023-04-01T01:46:55;1.55;;;0.40;;
75774;SDS011;64505;51.458;7.556;2023-04-01T01:48:58;1.10;;;0.50;;
75774;SDS011;64505;51.458;7.556;2023-04-01T01:51:01;0.50;;;0.50;;
75774;SDS011;64505;51.458;7.556;2023-04-01T01:53:05;1.50;;;0.68;;
75774;SDS011;64505;51.458;7.556;2023-04-01T01:55:29;2.42;;;0.70;;
75774;SDS011;64505;51.458;7.556;2023-04-01T01:57:42;1.80;;;0.50;;
75774;SDS011;64505;51.458;7.556;2023-04-01T01:59:45;3.67;;;0.63;;
75774;SDS011;64505;51.458;7.556;2023-04-01T02:01:50;1.85;;;0.50;;
75774;SDS011;64505;51.458;7.556;2023-04-01T02:03:54;2.05;;;0.40;;
75774;SDS011;64505;51.458;7.556;2023-04-01T02:05:59;1.48;;;0.60;;
75774;SDS011;64505;51.458;7.556;2023-04-01T02:08:06;1.85;;;0.63;;
75774;SDS011;64505;51.458;7.556;2023-04-01T02:10:11;1.88;;;0.60;;
75774;SDS011;64505;51.458;7.556;2023-04-01T02:12:14;1.85;;;0.47;;
75774;SDS011;64505;51.458;7.556;2023-04-01T02:14:22;1.55;;;0.43;;
75774;SDS011;64505;51.458;7.556;2023-04-01T02:16:29;2.40;;;0.60;;
75774;SDS011;64505;51.458;7.556;2023-04-01T02:18:36;1.80;;;0.50;;
75774;SDS011;64505;51.458;7.556;2023-04-01T02:20:39;1.88;;;0.50;;
75774;SDS011;64505;51.458;7.556;2023-04-01T02:22:53;1.83;;;0.40;;
75774;SDS011;64505;51.458;7.556;2023-04-01T02:24:59;1.27;;;0.40;;
75774;SDS011;64505;51.458;7.556;2023-04-01T02:27:13;1.45;;;0.40;;
75774;SDS011;64505;51.458;7.556;2023-04-01T02:29:15;2.60;;;0.55;;
75774;SDS011;64505;51.458;7.556;2023-04-01T02:31:19;1.67;;;0.50;;
75774;SDS011;64505;51.458;7.556;2023-04-01T02:33:22;1.48;;;0.30;;
75774;SDS011;64505;51.458;7.556;2023-04-01T02:35:23;0.93;;;0.52;;
75774;SDS011;64505;51.458;7.556;2023-04-01T02:37:26;1.83;;;0.50;;
75774;SDS011;64505;51.458;7.556;2023-04-01T02:39:28;3.78;;;0.60;;
75774;SDS011;64505;51.458;7.556;2023-04-01T02:41:29;2.70;;;0.60;;
75774;SDS011;64505;51.458;7.556;2023-04-01T02:43:31;0.63;;;0.30;;
75774;SDS011;64505;51.458;7.556;2023-04-01T02:45:34;1.75;;;0.47;;
75774;SDS011;64505;51.458;7.556;2023-04-01T02:47:36;2.50;;;0.60;;
75774;SDS011;64505;51.458;7.556;2023-04-01T02:49:37;2.05;;;0.50;;
75774;SDS011;64505;51.458;7.556;2023-04-01T02:51:39;2.83;;;0.80;;
75774;SDS011;64505;51.458;7.556;2023-04-01T02:53:40;1.05;;;0.60;;
75774;SDS011;64505;51.458;7.556;2023-04-01T02:55:42;1.90;;;0.50;;
75774;SDS011;64505;51.458;7.556;2023-04-01T02:57:43;1.83;;;0.50;;
75774;SDS011;64505;51.458;7.556;2023-04-01T02:59:45;0.52;;;0.30;;
75774;SDS011;64505;51.458;7.556;2023-04-01T03:01:46;1.08;;;0.30;;
75774;SDS011;64505;51.458;7.556;2023-04-01T03:03:48;1.13;;;0.65;;
75774;SDS011;64505;51.458;7.556;2023-04-01T03:05:49;1.02;;;0.40;;
75774;SDS011;64505;51.458;7.556;2023-04-01T03:07:51;1.38;;;0.38;;
75774;SDS011;64505;51.458;7.556;2023-04-01T03:09:52;1.25;;;0.60;;
75774;SDS011;64505;51.458;7.556;2023-04-01T03:11:54;1.80;;;0.40;;
75774;SDS011;64505;51.458;7.556;2023-04-01T03:13:55;0.85;;;0.32;;
75774;SDS011;64505;51.458;7.556;2023-04-01T03:15:57;1.98;;;0.32;;
75774;SDS011;64505;51.458;7.556;2023-04-01T03:17:59;2.20;;;0.50;;
75774;SDS011;64505;51.458;7.556;2023-04-01T03:20:00;1.05;;;0.50;;
75774;SDS011;64505;51.458;7.556;2023-04-01T03:22:03;0.30;;;0.30;;
75774;SDS011;64505;51.458;7.556;2023-04-01T03:24:05;1.77;;;0.60;;
75774;SDS011;64505;51.458;7.556;2023-04-01T03:26:07;1.00;;;0.50;;
75774;SDS011;64505;51.458;7.556;2023-04-01T03:28:09;2.33;;;0.55;;
75774;SDS011;64505;51.458;7.556;2023-04-01T03:30:11;1.33;;;0.40;;
75774;SDS011;64505;51.458;7.556;2023-04-01T03:32:13;0.20;;;0.20;;
75774;SDS011;64505;51.458;7.556;2023-04-01T03:34:14;1.77;;;0.50;;
75774;SDS011;64505;51.458;7.556;2023-04-01T03:36:15;1.67;;;0.30;;
75774;SDS011;64505;51.458;7.556;2023-04-01T03:38:17;0.93;;;0.40;;
75774;SDS011;64505;51.458;7.556;2023-04-01T03:40:19;1.30;;;0.50;;
75774;SDS011;64505;51.458;7.556;2023-04-01T03:42:22;0.82;;;0.50;;
75774;SDS011;64505;51.458;7.556;2023-04-01T03:44:23;0.47;;;0.40;;
75774;SDS011;64505;51.458;7.556;2023-04-01T03:46:25;0.93;;;0.32;;
75774;SDS011;64505;51.458;7.556;2023-04-01T03:48:26;1.85;;;0.40;;
75774;SDS011;64505;51.458;7.556;2023-04-01T03:50:28;0.93;;;0.28;;
75774;SDS011;64505;51.458;7.556;2023-04-01T03:52:31;1.25;;;0.30;;
75774;SDS011;64505;51.458;7.556;2023-04-01T03:54:32;1.48;;;0.40;;
75774;SDS011;64505;51.458;7.556;2023-04-01T03:56:34;0.95;;;0.50;;
75774;SDS011;64505;51.458;7.556;2023-04-01T03:58:36;0.45;;;0.40;;
75774;SDS011;64505;51.458;7.556;2023-04-01T04:00:38;0.85;;;0.30;;
75774;SDS011;64505;51.458;7.556;2023-04-01T04:02:39;1.92;;;0.50;;
75774;SDS011;64505;51.458;7.556;2023-04-01T04:04:41;0.63;;;0.30;;
75774;SDS011;64505;51.458;7.556;2023-04-01T04:06:42;0.98;;;0.40;;
75774;SDS011;64505;51.458;7.556;2023-04-01T04:08:44;1.83;;;0.50;;
75774;SDS011;64505;51.458;7.556;2023-04-01T04:10:45;0.52;;;0.40;;
75774;SDS011;64505;51.458;7.556;2023-04-01T04:12:48;1.33;;;0.55;;
75774;SDS011;64505;51.458;7.556;2023-04-01T04:14:50;1.13;;;0.43;;
75774;SDS011;64505;51.458;7.556;2023-04-01T04:16:51;1.13;;;0.40;;
75774;SDS011;64505;51.458;7.556;2023-04-01T04:18:53;1.95;;;0.52;;
75774;SDS011;64505;51.458;7.556;2023-04-01T04:20:54;2.35;;;0.77;;
75774;SDS011;64505;51.458;7.556;2023-04-01T04:22:56;1.55;;;0.77;;
75774;SDS011;64505;51.458;7.556;2023-04-01T04:24:57;1.52;;;0.63;;
75774;SDS011;64505;51.458;7.556;2023-04-01T04:26:59;1.10;;;0.60;;
75774;SDS011;64505;51.458;7.556;2023-04-01T04:29:00;1.98;;;0.60;;
75774;SDS011;64505;51.458;7.556;2023-04-01T04:31:02;2.85;;;0.68;;
75774;SDS011;64505;51.458;7.556;2023-04-01T04:33:06;1.27;;;0.80;;
75774;SDS011;64505;51.458;7.556;2023-04-01T04:35:07;0.60;;;0.60;;
75774;SDS011;64505;51.458;7.556;2023-04-01T04:37:09;2.17;;;0.68;;
75774;SDS011;64505;51.458;7.556;2023-04-01T04:39:10;1.73;;;0.80;;
75774;SDS011;64505;51.458;7.556;2023-04-01T04:41:13;1.42;;;1.00;;
75774;SDS011;64505;51.458;7.556;2023-04-01T04:43:16;2.67;;;0.70;;
75774;SDS011;64505;51.458;7.556;2023-04-01T04:45:18;1.67;;;0.80;;
75774;SDS011;64505;51.458;7.556;2023-04-01T04:47:20;1.95;;;0.73;;
75774;SDS011;64505;51.458;7.556;2023-04-01T04:49:21;2.42;;;0.90;;
75774;SDS011;64505;51.458;7.556;2023-04-01T04:51:23;1.50;;;0.63;;
75774;SDS011;64505;51.458;7.556;2023-04-01T04:53:24;2.38;;;0.75;;
75774;SDS011;64505;51.458;7.556;2023-04-01T04:55:27;2.05;;;0.80;;
75774;SDS011;64505;51.458;7.556;2023-04-01T04:57:28;3.28;;;0.80;;
75774;SDS011;64505;51.458;7.556;2023-04-01T04:59:30;1.67;;;1.00;;
75774;SDS011;64505;51.458;7.556;2023-04-01T05:01:32;1.50;;;0.93;;
75774;SDS011;64505;51.458;7.556;2023-04-01T05:03:34;3.97;;;1.08;;
75774;SDS011;64505;51.458;7.556;2023-04-01T05:05:36;2.72;;;1.20;;
75774;SDS011;64505;51.458;7.556;2023-04-01T05:07:37;2.33;;;0.90;;
75774;SDS011;64505;51.458;7.556;2023-04-01T05:09:39;1.88;;;1.00;;
75774;SDS011;64505;51.458;7.556;2023-04-01T05:11:40;1.60;;;0.77;;
75774;SDS011;64505;51.458;7.556;2023-04-01T05:13:42;3.05;;;1.02;;
75774;SDS011;64505;51.458;7.556;2023-04-01T05:15:45;2.20;;;0.80;;
75774;SDS011;64505;51.458;7.556;2023-04-01T05:17:46;2.08;;;1.00;;
75774;SDS011;64505;51.458;7.556;2023-04-01T05:19:48;1.58;;;1.00;;
75774;SDS011;64505;51.458;7.556;2023-04-01T05:21:49;1.45;;;0.88;;
75774;SDS011;64505;51.458;7.556;2023-04-01T05:23:51;2.70;;;1.30;;
75774;SDS011;64505;51.458;7.556;2023-04-01T05:25:52;2.53;;;1.20;;
75774;SDS011;64505;51.458;7.556;2023-04-01T05:27:54;1.75;;;1.10;;
75774;SDS011;64505;51.458;7.556;2023-04-01T05:29:55;3.17;;;0.95;;
75774;SDS011;64505;51.458;7.556;2023-04-01T05:31:57;2.33;;;0.77;;
75774;SDS011;64505;51.458;7.556;2023-04-01T05:33:58;1.90;;;1.00;;
75774;SDS011;64505;51.458;7.556;2023-04-01T05:36:10;2.67;;;0.82;;
75774;SDS011;64505;51.458;7.556;2023-04-01T05:38:13;2.28;;;0.90;;
75774;SDS011;64505;51.458;7.556;2023-04-01T05:40:15;1.92;;;1.30;;
75774;SDS011;64505;51.458;7.556;2023-04-01T05:42:16;1.48;;;0.98;;
75774;SDS011;64505;51.458;7.556;2023-04-01T05:44:18;1.90;;;0.85;;
75774;SDS011;64505;51.458;7.556;2023-04-01T05:46:19;1.80;;;0.93;;
75774;SDS011;64505;51.458;7.556;2023-04-01T05:48:21;1.80;;;1.02;;
75774;SDS011;64505;51.458;7.556;2023-04-01T05:50:22;1.60;;;1.10;;
75774;SDS011;64505;51.458;7.556;2023-04-01T05:52:23;1.65;;;1.10;;
75774;SDS011;64505;51.458;7.556;2023-04-01T05:54:25;2.95;;;1.27;;
75774;SDS011;64505;51.458;7.556;2023-04-01T05:56:26;2.10;;;1.15;;
75774;SDS011;64505;51.458;7.556;2023-04-01T05:58:28;2.45;;;0.95;;
75774;SDS011;64505;51.458;7.556;2023-04-01T06:00:29;1.77;;;1.10;;
75774;SDS011;64505;51.458;7.556;2023-04-01T06:02:31;2.00;;;1.17;;
75774;SDS011;64505;51.458;7.556;2023-04-01T06:04:34;2.10;;;1.20;;
75774;SDS011;64505;51.458;7.556;2023-04-01T06:06:39;1.85;;;1.00;;
75774;SDS011;64505;51.458;7.556;2023-04-01T06:08:41;4.28;;;1.10;;
75774;SDS011;64505;51.458;7.556;2023-04-01T06:10:55;1.70;;;0.93;;
75774;SDS011;64505;51.458;7.556;2023-04-01T06:17:29;2.67;;;1.00;;
75774;SDS011;64505;51.458;7.556;2023-04-01T06:19:40;1.38;;;0.88;;
75774;SDS011;64505;51.458;7.556;2023-04-01T06:34:08;2.25;;;1.10;;
75774;SDS011;64505;51.458;7.556;2023-04-01T06:36:39;3.17;;;0.95;;
75774;SDS011;64505;51.458;7.556;2023-04-01T06:49:39;3.00;;;0.90;;
75774;SDS011;64505;51.458;7.556;2023-04-01T06:51:48;1.35;;;0.73;;
75774;SDS011;64505;51.458;7.556;2023-04-01T06:58:44;2.60;;;0.82;;
75774;SDS011;64505;51.458;7.556;2023-04-01T07:00:46;3.30;;;1.00;;
75774;SDS011;64505;51.458;7.556;2023-04-01T07:02:58;3.15;;;0.88;;
75774;SDS011;64505;51.458;7.556;2023-04-01T07:05:07;2.22;;;0.98;;
75774;SDS011;64505;51.458;7.556;2023-04-01T07:07:14;1.52;;;0.93;;
75774;SDS011;64505;51.458;7.556;2023-04-01T07:09:24;2.40;;;0.80;;
75774;SDS011;64505;51.458;7.556;2023-04-01T07:11:34;1.83;;;0.90;;
75774;SDS011;64505;51.458;7.556;2023-04-01T07:13:51;2.40;;;0.80;;
75774;SDS011;64505;51.458;7.556;2023-04-01T07:16:03;4.60;;;0.90;;
75774;SDS011;64505;51.458;7.556;2023-04-01T07:18:17;1.20;;;0.75;;
75774;SDS011;64505;51.458;7.556;2023-04-01T07:20:24;2.30;;;0.82;;
75774;SDS011;64505;51.458;7.556;2023-04-01T07:22:32;1.67;;;0.80;;
75774;SDS011;64505;51.458;7.556;2023-04-01T07:24:46;2.60;;;1.50;;
75774;SDS011;64505;51.458;7.556;2023-04-01T07:26:54;1.75;;;0.70;;
75774;SDS011;64505;51.458;7.556;2023-04-01T07:28:56;2.55;;;0.77;;
75774;SDS011;64505;51.458;7.556;2023-04-01T07:33:25;2.63;;;0.88;;
75774;SDS011;64505;51.458;7.556;2023-04-01T07:35:38;1.27;;;0.70;;
75774;SDS011;64505;51.458;7.556;2023-04-01T07:48:39;1.63;;;1.10;;
75774;SDS011;64505;51.458;7.556;2023-04-01T07:51:00;2.13;;;0.95;;
75774;SDS011;64505;51.458;7.556;2023-04-01T08:03:43;1.50;;;0.95;;
75774;SDS011;64505;51.458;7.556;2023-04-01T08:06:19;2.00;;;1.17;;
75774;SDS011;64505;51.458;7.556;2023-04-01T08:10:52;1.38;;;0.80;;
75774;SDS011;64505;51.458;7.556;2023-04-01T08:13:04;1.38;;;0.63;;
75774;SDS011;64505;51.458;7.556;2023-04-01T08:16:09;0.75;;;0.60;;
75774;SDS011;64505;51.458;7.556;2023-04-01T08:22:29;1.05;;;0.70;;
75774;SDS011;64505;51.458;7.556;2023-04-01T08:24:41;1.63;;;0.80;;
75774;SDS011;64505;51.458;7.556;2023-04-01T08:26:49;1.33;;;0.90;;
75774;SDS011;64505;51.458;7.556;2023-04-01T08:28:59;3.38;;;0.80;;
75774;SDS011;64505;51.458;7.556;2023-04-01T08:31:05;2.63;;;1.40;;
75774;SDS011;64505;51.458;7.556;2023-04-01T08:33:13;2.45;;;1.00;;
75774;SDS011;64505;51.458;7.556;2023-04-01T08:35:28;2.03;;;1.00;;
75774;SDS011;64505;51.458;7.556;2023-04-01T08:37:35;3.20;;;1.00;;
75774;SDS011;64505;51.458;7.556;2023-04-01T08:39:42;1.77;;;0.80;;
75774;SDS011;64505;51.458;7.556;2023-04-01T08:41:57;2.05;;;0.90;;
75774;SDS011;64505;51.458;7.556;2023-04-01T08:46:32;3.35;;;1.80;;
75774;SDS011;64505;51.458;7.556;2023-04-01T08:51:07;1.88;;;1.10;;
75774;SDS011;64505;51.458;7.556;2023-04-01T09:00:38;1.58;;;0.65;;
75774;SDS011;64505;51.458;7.556;2023-04-01T09:02:55;0.80;;;0.40;;
75774;SDS011;64505;51.458;7.556;2023-04-01T09:07:42;1.10;;;0.55;;
75774;SDS011;64505;51.458;7.556;2023-04-01T09:36:59;1.90;;;0.73;;
75774;SDS011;64505;51.458;7.556;2023-04-01T09:43:55;1.60;;;0.60;;
75774;SDS011;64505;51.458;7.556;2023-04-01T09:46:16;2.00;;;0.60;;
75774;SDS011;64505;51.458;7.556;2023-04-01T09:48:45;1.08;;;0.65;;
75774;SDS011;64505;51.458;7.556;2023-04-01T09:50:52;1.52;;;0.80;;
75774;SDS011;64505;51.458;7.556;2023-04-01T10:03:02;1.10;;;0.60;;
75774;SDS011;64505;51.458;7.556;2023-04-01T10:05:53;1.23;;;0.82;;
75774;SDS011;64505;51.458;7.556;2023-04-01T10:22:29;2.97;;;1.42;;
75774;SDS011;64505;51.458;7.556;2023-04-01T10:37:03;3.80;;;2.13;;
75774;SDS011;64505;51.458;7.556;2023-04-01T10:44:13;4.47;;;2.00;;
75774;SDS011;64505;51.458;7.556;2023-04-01T10:48:58;3.80;;;2.20;;
75774;SDS011;64505;51.458;7.556;2023-04-01T11:03:20;4.18;;;2.30;;
75774;SDS011;64505;51.458;7.556;2023-04-01T11:25:05;3.80;;;2.00;;
75774;SDS011;64505;51.458;7.556;2023-04-01T11:29:39;3.58;;;1.73;;
75774;SDS011;64505;51.458;7.556;2023-04-01T11:42:00;3.13;;;1.60;;
75774;SDS011;64505;51.458;7.556;2023-04-01T11:44:10;3.90;;;1.98;;
75774;SDS011;64505;51.458;7.556;2023-04-01T11:48:54;3.72;;;1.92;;
75774;SDS011;64505;51.458;7.556;2023-04-01T12:00:58;3.63;;;1.50;;
75774;SDS011;64505;51.458;7.556;2023-04-01T12:03:21;3.72;;;1.65;;
75774;SDS011;64505;51.458;7.556;2023-04-01T12:10:18;2.03;;;1.23;;
75774;SDS011;64505;51.458;7.556;2023-04-01T12:15:13;2.65;;;1.38;;
75774;SDS011;64505;51.458;7.556;2023-04-01T12:26:39;1.98;;;1.15;;
75774;SDS011;64505;51.458;7.556;2023-04-01T12:41:40;3.05;;;1.50;;
75774;SDS011;64505;51.458;7.556;2023-04-01T12:51:20;1.63;;;1.02;;
75774;SDS011;64505;51.458;7.556;2023-04-01T12:56:02;1.52;;;1.05;;
75774;SDS011;64505;51.458;7.556;2023-04-01T13:00:46;1.85;;;1.13;;
75774;SDS011;64505;51.458;7.556;2023-04-01T13:10:53;2.08;;;1.05;;
75774;SDS011;64505;51.458;7.556;2023-04-01T13:17:53;2.78;;;1.10;;
75774;SDS011;64505;51.458;7.556;2023-04-01T13:19:57;2.33;;;1.30;;
75774;SDS011;64505;51.458;7.556;2023-04-01T13:24:53;2.40;;;1.40;;
75774;SDS011;64505;51.458;7.556;2023-04-01T13:29:19;3.20;;;1.70;;
75774;SDS011;64505;51.458;7.556;2023-04-01T13:33:54;2.60;;;1.50;;
75774;SDS011;64505;51.458;7.556;2023-04-01T13:36:10;1.95;;;1.40;;
75774;SDS011;64505;51.458;7.556;2023-04-01T13:58:52;3.97;;;2.55;;
75774;SDS011;64505;51.458;7.556;2023-04-01T14:01:19;3.90;;;2.30;;
75774;SDS011;64505;51.458;7.556;2023-04-01T14:10:45;5.32;;;2.30;;
75774;SDS011;64505;51.458;7.556;2023-04-01T14:20:28;4.53;;;2.30;;
75774;SDS011;64505;51.458;7.556;2023-04-01T14:22:46;4.05;;;2.38;;
75774;SDS011;64505;51.458;7.556;2023-04-01T14:32:51;3.25;;;2.03;;
75774;SDS011;64505;51.458;7.556;2023-04-01T14:37:55;2.88;;;1.73;;
75774;SDS011;64505;51.458;7.556;2023-04-01T14:42:23;3.40;;;1.98;;
75774;SDS011;64505;51.458;7.556;2023-04-01T14:44:45;3.80;;;1.80;;
75774;SDS011;64505;51.458;7.556;2023-04-01T14:51:42;3.22;;;1.70;;
75774;SDS011;64505;51.458;7.556;2023-04-01T14:53:52;3.10;;;1.60;;
75774;SDS011;64505;51.458;7.556;2023-04-01T14:56:01;3.08;;;1.55;;
75774;SDS011;64505;51.458;7.556;2023-04-01T15:00:15;2.72;;;1.50;;
75774;SDS011;64505;51.458;7.556;2023-04-01T15:05:06;3.50;;;1.67;;
75774;SDS011;64505;51.458;7.556;2023-04-01T15:14:21;2.95;;;1.52;;
75774;SDS011;64505;51.458;7.556;2023-04-01T15:19:01;2.88;;;1.40;;
75774;SDS011;64505;51.458;7.556;2023-04-01T15:23:51;2.17;;;1.20;;
75774;SDS011;64505;51.458;7.556;2023-04-01T15:31:04;2.80;;;1.35;;
75774;SDS011;64505;51.458;7.556;2023-04-01T15:35:43;3.40;;;1.70;;
75774;SDS011;64505;51.458;7.556;2023-04-01T15:37:56;5.82;;;1.80;;
75774;SDS011;64505;51.458;7.556;2023-04-01T15:44:58;3.83;;;1.92;;
75774;SDS011;64505;51.458;7.556;2023-04-01T15:47:58;3.90;;;2.00;;
75774;SDS011;64505;51.458;7.556;2023-04-01T15:49:43;3.55;;;2.30;;
75774;SDS011;64505;51.458;7.556;2023-04-01T15:54:46;4.15;;;2.45;;
75774;SDS011;64505;51.458;7.556;2023-04-01T16:06:13;4.78;;;2.65;;
75774;SDS011;64505;51.458;7.556;2023-04-01T16:20:19;6.70;;;4.00;;
75774;SDS011;64505;51.458;7.556;2023-04-01T16:29:20;6.13;;;3.97;;
75774;SDS011;64505;51.458;7.556;2023-04-01T16:34:08;6.60;;;4.53;;
75774;SDS011;64505;51.458;7.556;2023-04-01T16:36:32;6.30;;;3.90;;
75774;SDS011;64505;51.458;7.556;2023-04-01T16:43:13;6.50;;;4.13;;
75774;SDS011;64505;51.458;7.556;2023-04-01T16:45:33;6.85;;;3.97;;
75774;SDS011;64505;51.458;7.556;2023-04-01T16:47:40;5.85;;;4.07;;
75774;SDS011;64505;51.458;7.556;2023-04-01T16:55:12;5.88;;;3.88;;
75774;SDS011;64505;51.458;7.556;2023-04-01T16:57:37;5.93;;;3.67;;
75774;SDS011;64505;51.458;7.556;2023-04-01T17:00:14;5.60;;;3.80;;
75774;SDS011;64505;51.458;7.556;2023-04-01T17:02:17;5.43;;;3.38;;
75774;SDS011;64505;51.458;7.556;2023-04-01T17:11:09;5.20;;;3.22;;
75774;SDS011;64505;51.458;7.556;2023-04-01T17:13:32;4.40;;;2.95;;
75774;SDS011;64505;51.458;7.556;2023-04-01T17:15:51;5.10;;;3.00;;
75774;SDS011;64505;51.458;7.556;2023-04-01T17:22:49;4.57;;;2.90;;
75774;SDS011;64505;51.458;7.556;2023-04-01T17:27:23;5.10;;;2.70;;
75774;SDS011;64505;51.458;7.556;2023-04-01T17:34:12;5.30;;;2.95;;
75774;SDS011;64505;51.458;7.556;2023-04-01T17:36:25;4.43;;;2.67;;
75774;SDS011;64505;51.458;7.556;2023-04-01T17:43:47;4.90;;;2.90;;
75774;SDS011;64505;51.458;7.556;2023-04-01T17:45:58;4.97;;;3.45;;
75774;SDS011;64505;51.458;7.556;2023-04-01T17:48:44;4.60;;;2.85;;
75774;SDS011;64505;51.458;7.556;2023-04-01T17:58:00;4.10;;;2.38;;
75774;SDS011;64505;51.458;7.556;2023-04-01T18:19:54;4.35;;;2.63;;
75774;SDS011;64505;51.458;7.556;2023-04-01T18:24:21;5.40;;;3.33;;
75774;SDS011;64505;51.458;7.556;2023-04-01T18:29:28;5.82;;;3.60;;
75774;SDS011;64505;51.458;7.556;2023-04-01T18:31:42;5.32;;;3.40;;
75774;SDS011;64505;51.458;7.556;2023-04-01T18:38:31;7.60;;;3.90;;
75774;SDS011;64505;51.458;7.556;2023-04-01T18:40:38;7.93;;;4.15;;
75774;SDS011;64505;51.458;7.556;2023-04-01T18:45:56;7.53;;;3.97;;
75774;SDS011;64505;51.458;7.556;2023-04-01T18:52:39;6.95;;;4.10;;
75774;SDS011;64505;51.458;7.556;2023-04-01T18:57:18;8.35;;;4.88;;
75774;SDS011;64505;51.458;7.556;2023-04-01T18:59:23;8.25;;;4.82;;
75774;SDS011;64505;51.458;7.556;2023-04-01T19:01:40;7.60;;;4.95;;
75774;SDS011;64505;51.458;7.556;2023-04-01T19:03:55;7.10;;;4.32;;
75774;SDS011;64505;51.458;7.556;2023-04-01T19:05:59;7.30;;;4.40;;
75774;SDS011;64505;51.458;7.556;2023-04-01T19:08:14;9.40;;;4.97;;
75774;SDS011;64505;51.458;7.556;2023-04-01T19:12:49;8.75;;;5.28;;
75774;SDS011;64505;51.458;7.556;2023-04-01T19:24:12;9.25;;;5.90;;
75774;SDS011;64505;51.458;7.556;2023-04-01T19:41:29;10.93;;;6.07;;
75774;SDS011;64505;51.458;7.556;2023-04-01T19:43:39;11.65;;;6.35;;
75774;SDS011;64505;51.458;7.556;2023-04-01T19:45:54;10.88;;;5.88;;
75774;SDS011;64505;51.458;7.556;2023-04-01T19:50:46;10.05;;;6.07;;
75774;SDS011;64505;51.458;7.556;2023-04-01T19:52:55;8.77;;;5.57;;
75774;SDS011;64505;51.458;7.556;2023-04-01T19:57:34;8.88;;;5.88;;
75774;SDS011;64505;51.458;7.556;2023-04-01T19:59:49;8.68;;;5.30;;
75774;SDS011;64505;51.458;7.556;2023-04-01T20:01:59;9.27;;;4.90;;
75774;SDS011;64505;51.458;7.556;2023-04-01T20:04:32;7.82;;;4.95;;
75774;SDS011;64505;51.458;7.556;2023-04-01T20:12:05;8.07;;;5.10;;
75774;SDS011;64505;51.458;7.556;2023-04-01T20:16:51;8.88;;;5.40;;
75774;SDS011;64505;51.458;7.556;2023-04-01T20:19:01;9.63;;;5.20;;
75774;SDS011;64505;51.458;7.556;2023-04-01T20:23:46;7.57;;;4.53;;
75774;SDS011;64505;51.458;7.556;2023-04-01T20:25:56;8.30;;;5.00;;
75774;SDS011;64505;51.458;7.556;2023-04-01T20:33:15;8.20;;;4.95;;
75774;SDS011;64505;51.458;7.556;2023-04-01T20:35:45;7.38;;;4.32;;
75774;SDS011;64505;51.458;7.556;2023-04-01T20:38:13;8.80;;;5.30;;
75774;SDS011;64505;51.458;7.556;2023-04-01T20:40:32;7.57;;;4.15;;
75774;SDS011;64505;51.458;7.556;2023-04-01T20:42:49;8.40;;;5.60;;
75774;SDS011;64505;51.458;7.556;2023-04-01T20:52:41;11.82;;;6.28;;
75774;SDS011;64505;51.458;7.556;2023-04-01T21:14:28;7.82;;;4.00;;
75774;SDS011;64505;51.458;7.556;2023-04-01T21:16:51;4.60;;;2.33;;
75774;SDS011;64505;51.458;7.556;2023-04-01T21:19:02;2.85;;;1.50;;
75774;SDS011;64505;51.458;7.556;2023-04-01T21:28:20;2.28;;;1.30;;
75774;SDS011;64505;51.458;7.556;2023-04-01T21:30:49;1.90;;;1.20;;
75774;SDS011;64505;51.458;7.556;2023-04-01T21:38:41;1.98;;;1.25;;
75774;SDS011;64505;51.458;7.556;2023-04-01T21:45:53;2.40;;;1.50;;
75774;SDS011;64505;51.458;7.556;2023-04-01T21:50:42;3.05;;;1.70;;
75774;SDS011;64505;51.458;7.556;2023-04-01T22:00:29;2.90;;;1.65;;
75774;SDS011;64505;51.458;7.556;2023-04-01T22:02:42;2.65;;;1.60;;
75774;SDS011;64505;51.458;7.556;2023-04-01T22:07:15;2.83;;;1.48;;
75774;SDS011;64505;51.458;7.556;2023-04-01T22:09:30;2.90;;;1.73;;
75774;SDS011;64505;51.458;7.556;2023-04-01T22:14:13;2.83;;;1.80;;
75774;SDS011;64505;51.458;7.556;2023-04-01T22:18:46;2.28;;;1.33;;
75774;SDS011;64505;51.458;7.556;2023-04-01T22:28:50;3.15;;;1.60;;
75774;SDS011;64505;51.458;7.556;2023-04-01T22:31:00;3.83;;;1.90;;
75774;SDS011;64505;51.458;7.556;2023-04-01T22:37:40;2.97;;;1.77;;
75774;SDS011;64505;51.458;7.556;2023-04-01T22:42:47;2.95;;;1.83;;
75774;SDS011;64505;51.458;7.556;2023-04-01T22:49:27;2.58;;;1.60;;
75774;SDS011;64505;51.458;7.556;2023-04-01T22:51:50;2.50;;;1.55;;
75774;SDS011;64505;51.458;7.556;2023-04-01T22:54:07;2.25;;;1.52;;
75774;SDS011;64505;51.458;7.556;2023-04-01T22:56:15;2.40;;;1.65;;
75774;SDS011;64505;51.458;7.556;2023-04-01T22:58:34;2.95;;;1.70;;
75774;SDS011;64505;51.458;7.556;2023-04-01T23:00:40;3.80;;;1.77;;
75774;SDS011;64505;51.458;7.556;2023-04-01T23:02:47;3.00;;;1.50;;
75774;SDS011;64505;51.458;7.556;2023-04-01T23:04:55;3.13;;;1.73;;